sensor_id;sensor_type;location;lat;lon;timestamp;temperature;humidity
563;DHT22;266;49.514;8.294;2022-09-28T00:00:00;9.90;99.90
563;DHT22;266;49.514;8.294;2022-09-28T00:02:31;9.80;99.90
563;DHT22;266;49.514;8.294;2022-09-28T00:05:01;9.80;99.90
563;DHT22;266;49.514;8.294;2022-09-28T00:07:29;9.80;99.90
563;DHT22;266;49.514;8.294;2022-09-28T00:09:59;9.80;99.90
563;DHT22;266;49.514;8.294;2022-09-28T00:12:27;9.80;99.90
563;DHT22;266;49.514;8.294;2022-09-28T00:14:57;9.90;99.90
563;DHT22;266;49.514;8.294;2022-09-28T00:17:25;9.80;99.90
563;DHT22;266;49.514;8.294;2022-09-28T00:19:56;9.80;99.90
563;DHT22;266;49.514;8.294;2022-09-28T00:22:28;9.80;99.90
563;DHT22;266;49.514;8.294;2022-09-28T00:24:59;9.90;99.90
563;DHT22;266;49.514;8.294;2022-09-28T00:27:28;9.90;99.90
563;DHT22;266;49.514;8.294;2022-09-28T00:29:57;9.90;99.90
563;DHT22;266;49.514;8.294;2022-09-28T00:32:30;9.90;99.90
563;DHT22;266;49.514;8.294;2022-09-28T00:34:59;9.90;99.90
563;DHT22;266;49.514;8.294;2022-09-28T00:37:30;9.90;99.90
563;DHT22;266;49.514;8.294;2022-09-28T00:39:59;9.90;99.90
563;DHT22;266;49.514;8.294;2022-09-28T00:42:28;9.90;99.90
563;DHT22;266;49.514;8.294;2022-09-28T00:44:59;9.90;99.90
563;DHT22;266;49.514;8.294;2022-09-28T00:47:38;9.90;99.90
563;DHT22;266;49.514;8.294;2022-09-28T00:50:32;9.90;99.90
563;DHT22;266;49.514;8.294;2022-09-28T00:53:07;9.90;99.90
563;DHT22;266;49.514;8.294;2022-09-28T00:55:43;9.90;99.90
563;DHT22;266;49.514;8.294;2022-09-28T00:58:19;9.90;99.90
563;DHT22;266;49.514;8.294;2022-09-28T01:00:48;9.90;99.90
563;DHT22;266;49.514;8.294;2022-09-28T01:03:19;9.90;99.90
563;DHT22;266;49.514;8.294;2022-09-28T01:05:58;9.90;99.90
563;DHT22;266;49.514;8.294;2022-09-28T01:08:29;9.90;99.90
563;DHT22;266;49.514;8.294;2022-09-28T01:10:59;9.90;99.90
563;DHT22;266;49.514;8.294;2022-09-28T01:13:29;9.90;99.90
563;DHT22;266;49.514;8.294;2022-09-28T01:16:03;9.90;99.90
563;DHT22;266;49.514;8.294;2022-09-28T01:18:39;9.90;99.90
563;DHT22;266;49.514;8.294;2022-09-28T01:21:18;9.90;99.90
563;DHT22;266;49.514;8.294;2022-09-28T01:24:13;10.00;99.90
563;DHT22;266;49.514;8.294;2022-09-28T01:27:01;10.00;99.90
563;DHT22;266;49.514;8.294;2022-09-28T01:29:47;10.00;99.90
563;DHT22;266;49.514;8.294;2022-09-28T01:32:24;10.00;99.90
563;DHT22;266;49.514;8.294;2022-09-28T01:34:57;10.00;99.90
563;DHT22;266;49.514;8.294;2022-09-28T01:37:35;10.00;99.90
563;DHT22;266;49.514;8.294;2022-09-28T01:40:06;10.00;99.90
563;DHT22;266;49.514;8.294;2022-09-28T01:42:44;10.00;99.90
563;DHT22;266;49.514;8.294;2022-09-28T01:45:21;10.00;99.90
563;DHT22;266;49.514;8.294;2022-09-28T01:47:53;10.00;99.90
563;DHT22;266;49.514;8.294;2022-09-28T01:50:25;10.00;99.90
563;DHT22;266;49.514;8.294;2022-09-28T01:53:03;10.00;99.90
563;DHT22;266;49.514;8.294;2022-09-28T01:55:38;10.10;99.90
563;DHT22;266;49.514;8.294;2022-09-28T01:58:12;10.10;99.90
563;DHT22;266;49.514;8.294;2022-09-28T02:00:48;10.10;99.90
563;DHT22;266;49.514;8.294;2022-09-28T02:03:24;10.10;99.90
563;DHT22;266;49.514;8.294;2022-09-28T02:05:59;10.10;99.90
563;DHT22;266;49.514;8.294;2022-09-28T02:08:33;10.10;99.90
563;DHT22;266;49.514;8.294;2022-09-28T02:11:10;10.00;99.90
563;DHT22;266;49.514;8.294;2022-09-28T02:13:46;10.00;99.90
563;DHT22;266;49.514;8.294;2022-09-28T02:16:21;10.10;99.90
563;DHT22;266;49.514;8.294;2022-09-28T02:18:50;10.10;99.90
563;DHT22;266;49.514;8.294;2022-09-28T02:21:24;10.10;99.90
563;DHT22;266;49.514;8.294;2022-09-28T02:24:00;10.10;99.90
563;DHT22;266;49.514;8.294;2022-09-28T02:26:35;10.10;99.90
563;DHT22;266;49.514;8.294;2022-09-28T02:29:09;10.10;99.90
563;DHT22;266;49.514;8.294;2022-09-28T02:31:38;10.10;99.90
563;DHT22;266;49.514;8.294;2022-09-28T02:34:06;10.20;99.90
563;DHT22;266;49.514;8.294;2022-09-28T02:36:35;10.20;99.90
563;DHT22;266;49.514;8.294;2022-09-28T02:39:04;10.30;99.90
563;DHT22;266;49.514;8.294;2022-09-28T02:41:42;10.20;99.90
563;DHT22;266;49.514;8.294;2022-09-28T02:44:29;10.20;99.90
563;DHT22;266;49.514;8.294;2022-09-28T02:47:04;10.30;99.90
563;DHT22;266;49.514;8.294;2022-09-28T02:49:40;10.30;99.90
563;DHT22;266;49.514;8.294;2022-09-28T02:52:32;10.20;99.90
563;DHT22;266;49.514;8.294;2022-09-28T02:55:23;10.20;99.90
563;DHT22;266;49.514;8.294;2022-09-28T02:58:07;10.30;99.90
563;DHT22;266;49.514;8.294;2022-09-28T03:00:45;10.20;99.90
563;DHT22;266;49.514;8.294;2022-09-28T03:03:19;10.30;99.90
563;DHT22;266;49.514;8.294;2022-09-28T03:05:56;10.30;99.90
563;DHT22;266;49.514;8.294;2022-09-28T03:08:31;10.30;99.90
563;DHT22;266;49.514;8.294;2022-09-28T03:11:04;10.20;99.90
563;DHT22;266;49.514;8.294;2022-09-28T03:13:38;10.30;99.90
563;DHT22;266;49.514;8.294;2022-09-28T03:16:14;10.30;99.90
563;DHT22;266;49.514;8.294;2022-09-28T03:18:46;10.30;99.90
563;DHT22;266;49.514;8.294;2022-09-28T03:21:16;10.30;99.90
563;DHT22;266;49.514;8.294;2022-09-28T03:23:44;10.20;99.90
563;DHT22;266;49.514;8.294;2022-09-28T03:26:14;10.20;99.90
563;DHT22;266;49.514;8.294;2022-09-28T03:28:46;10.20;99.90
563;DHT22;266;49.514;8.294;2022-09-28T03:31:17;10.20;99.90
563;DHT22;266;49.514;8.294;2022-09-28T03:33:50;10.20;99.90
563;DHT22;266;49.514;8.294;2022-09-28T03:36:23;10.30;99.90
563;DHT22;266;49.514;8.294;2022-09-28T03:38:54;10.30;99.90
563;DHT22;266;49.514;8.294;2022-09-28T03:41:23;10.30;99.90
563;DHT22;266;49.514;8.294;2022-09-28T03:43:53;10.20;99.90
563;DHT22;266;49.514;8.294;2022-09-28T03:46:27;10.20;99.90
563;DHT22;266;49.514;8.294;2022-09-28T03:48:59;10.20;99.90
563;DHT22;266;49.514;8.294;2022-09-28T03:51:28;10.20;99.90
563;DHT22;266;49.514;8.294;2022-09-28T03:53:56;10.20;99.90
563;DHT22;266;49.514;8.294;2022-09-28T03:56:26;10.10;99.90
563;DHT22;266;49.514;8.294;2022-09-28T03:58:54;10.10;99.90
563;DHT22;266;49.514;8.294;2022-09-28T04:01:24;10.10;99.90
563;DHT22;266;49.514;8.294;2022-09-28T04:03:56;10.10;99.90
563;DHT22;266;49.514;8.294;2022-09-28T04:06:24;10.00;99.90
563;DHT22;266;49.514;8.294;2022-09-28T04:08:52;10.00;99.90
563;DHT22;266;49.514;8.294;2022-09-28T04:11:22;10.00;99.90
563;DHT22;266;49.514;8.294;2022-09-28T04:13:50;9.90;99.90
563;DHT22;266;49.514;8.294;2022-09-28T04:16:23;9.90;99.90
563;DHT22;266;49.514;8.294;2022-09-28T04:18:53;9.90;99.90
563;DHT22;266;49.514;8.294;2022-09-28T04:21:22;9.90;99.90
563;DHT22;266;49.514;8.294;2022-09-28T04:23:54;9.90;99.90
563;DHT22;266;49.514;8.294;2022-09-28T04:26:25;9.90;99.90
563;DHT22;266;49.514;8.294;2022-09-28T04:28:53;10.00;99.90
563;DHT22;266;49.514;8.294;2022-09-28T04:31:42;10.00;99.90
563;DHT22;266;49.514;8.294;2022-09-28T04:34:12;10.10;99.90
563;DHT22;266;49.514;8.294;2022-09-28T04:36:40;10.10;99.90
563;DHT22;266;49.514;8.294;2022-09-28T04:39:10;10.10;99.90
563;DHT22;266;49.514;8.294;2022-09-28T04:41:40;10.20;99.90
563;DHT22;266;49.514;8.294;2022-09-28T04:44:10;10.20;99.90
563;DHT22;266;49.514;8.294;2022-09-28T04:46:45;10.20;99.90
563;DHT22;266;49.514;8.294;2022-09-28T04:49:14;10.10;99.90
563;DHT22;266;49.514;8.294;2022-09-28T04:51:46;10.20;99.90
563;DHT22;266;49.514;8.294;2022-09-28T04:54:16;10.20;99.90
563;DHT22;266;49.514;8.294;2022-09-28T04:56:47;10.20;99.90
563;DHT22;266;49.514;8.294;2022-09-28T04:59:17;10.20;99.90
563;DHT22;266;49.514;8.294;2022-09-28T05:01:46;10.20;99.90
563;DHT22;266;49.514;8.294;2022-09-28T05:04:16;10.20;99.90
563;DHT22;266;49.514;8.294;2022-09-28T05:06:50;10.20;99.90
563;DHT22;266;49.514;8.294;2022-09-28T05:09:19;10.10;99.90
563;DHT22;266;49.514;8.294;2022-09-28T05:11:51;10.20;99.90
563;DHT22;266;49.514;8.294;2022-09-28T05:14:22;10.10;99.90
563;DHT22;266;49.514;8.294;2022-09-28T05:16:55;10.10;99.90
563;DHT22;266;49.514;8.294;2022-09-28T05:19:26;10.10;99.90
563;DHT22;266;49.514;8.294;2022-09-28T05:21:56;10.10;99.90
563;DHT22;266;49.514;8.294;2022-09-28T05:24:27;10.10;99.90
563;DHT22;266;49.514;8.294;2022-09-28T05:26:55;10.00;99.90
563;DHT22;266;49.514;8.294;2022-09-28T05:29:26;10.10;99.90
563;DHT22;266;49.514;8.294;2022-09-28T05:32:00;10.10;99.90
563;DHT22;266;49.514;8.294;2022-09-28T05:34:28;10.00;99.90
563;DHT22;266;49.514;8.294;2022-09-28T05:36:56;10.10;99.90
563;DHT22;266;49.514;8.294;2022-09-28T05:39:28;10.00;99.90
563;DHT22;266;49.514;8.294;2022-09-28T05:42:04;10.00;99.90
563;DHT22;266;49.514;8.294;2022-09-28T05:44:34;10.00;99.90
563;DHT22;266;49.514;8.294;2022-09-28T05:47:05;10.00;99.90
563;DHT22;266;49.514;8.294;2022-09-28T05:49:36;10.00;99.90
563;DHT22;266;49.514;8.294;2022-09-28T05:52:04;10.00;99.90
563;DHT22;266;49.514;8.294;2022-09-28T05:54:32;10.10;99.90
563;DHT22;266;49.514;8.294;2022-09-28T05:57:00;10.10;99.90
563;DHT22;266;49.514;8.294;2022-09-28T05:59:30;10.10;99.90
563;DHT22;266;49.514;8.294;2022-09-28T06:02:04;10.10;99.90
563;DHT22;266;49.514;8.294;2022-09-28T06:04:34;10.10;99.90
563;DHT22;266;49.514;8.294;2022-09-28T06:07:03;10.10;99.90
563;DHT22;266;49.514;8.294;2022-09-28T06:09:32;10.10;99.90
563;DHT22;266;49.514;8.294;2022-09-28T06:12:02;10.20;99.90
563;DHT22;266;49.514;8.294;2022-09-28T06:14:32;10.20;99.90
563;DHT22;266;49.514;8.294;2022-09-28T06:17:02;10.20;99.90
563;DHT22;266;49.514;8.294;2022-09-28T06:19:32;10.30;99.90
563;DHT22;266;49.514;8.294;2022-09-28T06:22:04;10.40;99.90
563;DHT22;266;49.514;8.294;2022-09-28T06:24:32;10.40;99.90
563;DHT22;266;49.514;8.294;2022-09-28T06:27:00;10.40;99.90
563;DHT22;266;49.514;8.294;2022-09-28T06:29:32;10.50;99.90
563;DHT22;266;49.514;8.294;2022-09-28T06:32:04;10.50;99.90
563;DHT22;266;49.514;8.294;2022-09-28T06:34:43;10.50;99.90
563;DHT22;266;49.514;8.294;2022-09-28T06:37:21;10.50;99.90
563;DHT22;266;49.514;8.294;2022-09-28T06:39:52;10.50;99.90
563;DHT22;266;49.514;8.294;2022-09-28T06:42:23;10.40;99.90
563;DHT22;266;49.514;8.294;2022-09-28T06:44:54;10.50;99.90
563;DHT22;266;49.514;8.294;2022-09-28T06:47:26;10.40;99.90
563;DHT22;266;49.514;8.294;2022-09-28T06:49:56;10.50;99.90
563;DHT22;266;49.514;8.294;2022-09-28T06:52:25;10.50;99.90
563;DHT22;266;49.514;8.294;2022-09-28T06:54:57;10.60;99.90
563;DHT22;266;49.514;8.294;2022-09-28T06:57:25;10.70;99.90
563;DHT22;266;49.514;8.294;2022-09-28T06:59:54;10.70;99.90
563;DHT22;266;49.514;8.294;2022-09-28T07:02:23;10.80;99.90
563;DHT22;266;49.514;8.294;2022-09-28T07:04:56;10.90;99.90
563;DHT22;266;49.514;8.294;2022-09-28T07:07:26;10.90;99.90
563;DHT22;266;49.514;8.294;2022-09-28T07:09:58;11.00;99.90
563;DHT22;266;49.514;8.294;2022-09-28T07:12:28;11.00;99.90
563;DHT22;266;49.514;8.294;2022-09-28T07:14:58;11.10;99.90
563;DHT22;266;49.514;8.294;2022-09-28T07:17:27;11.20;99.90
563;DHT22;266;49.514;8.294;2022-09-28T07:19:59;11.20;99.90
563;DHT22;266;49.514;8.294;2022-09-28T07:22:42;11.40;99.90
563;DHT22;266;49.514;8.294;2022-09-28T07:25:11;11.50;99.90
563;DHT22;266;49.514;8.294;2022-09-28T07:27:40;11.70;99.90
563;DHT22;266;49.514;8.294;2022-09-28T07:30:12;11.90;99.90
563;DHT22;266;49.514;8.294;2022-09-28T07:32:41;12.20;99.90
563;DHT22;266;49.514;8.294;2022-09-28T07:35:11;12.50;99.90
563;DHT22;266;49.514;8.294;2022-09-28T07:37:39;12.80;99.90
563;DHT22;266;49.514;8.294;2022-09-28T07:40:08;13.10;99.90
563;DHT22;266;49.514;8.294;2022-09-28T07:43:02;13.40;99.90
563;DHT22;266;49.514;8.294;2022-09-28T07:45:35;13.70;99.90
563;DHT22;266;49.514;8.294;2022-09-28T07:48:04;13.80;99.90
563;DHT22;266;49.514;8.294;2022-09-28T07:50:35;14.10;99.90
563;DHT22;266;49.514;8.294;2022-09-28T07:53:10;14.50;99.90
563;DHT22;266;49.514;8.294;2022-09-28T07:55:40;15.00;99.90
563;DHT22;266;49.514;8.294;2022-09-28T07:58:09;15.30;99.90
563;DHT22;266;49.514;8.294;2022-09-28T08:00:38;15.40;99.90
563;DHT22;266;49.514;8.294;2022-09-28T08:03:08;15.60;99.90
563;DHT22;266;49.514;8.294;2022-09-28T08:05:41;15.80;99.90
563;DHT22;266;49.514;8.294;2022-09-28T08:08:10;15.90;99.90
563;DHT22;266;49.514;8.294;2022-09-28T08:10:43;16.00;99.90
563;DHT22;266;49.514;8.294;2022-09-28T08:13:13;16.50;99.90
563;DHT22;266;49.514;8.294;2022-09-28T08:15:46;17.10;99.90
563;DHT22;266;49.514;8.294;2022-09-28T08:18:17;17.50;99.90
563;DHT22;266;49.514;8.294;2022-09-28T08:20:50;17.90;99.90
563;DHT22;266;49.514;8.294;2022-09-28T08:23:37;18.20;99.90
563;DHT22;266;49.514;8.294;2022-09-28T08:26:09;18.60;99.90
563;DHT22;266;49.514;8.294;2022-09-28T08:28:42;18.70;99.90
563;DHT22;266;49.514;8.294;2022-09-28T08:31:10;18.90;99.90
563;DHT22;266;49.514;8.294;2022-09-28T08:33:39;19.00;99.90
563;DHT22;266;49.514;8.294;2022-09-28T08:36:10;18.70;99.90
563;DHT22;266;49.514;8.294;2022-09-28T08:38:39;18.50;99.90
563;DHT22;266;49.514;8.294;2022-09-28T08:41:17;18.40;99.90
563;DHT22;266;49.514;8.294;2022-09-28T08:44:10;18.50;99.90
563;DHT22;266;49.514;8.294;2022-09-28T08:46:44;18.40;99.90
563;DHT22;266;49.514;8.294;2022-09-28T08:49:19;18.00;99.90
563;DHT22;266;49.514;8.294;2022-09-28T08:51:59;17.80;99.90
563;DHT22;266;49.514;8.294;2022-09-28T08:54:35;17.80;99.90
563;DHT22;266;49.514;8.294;2022-09-28T08:57:09;18.20;99.90
563;DHT22;266;49.514;8.294;2022-09-28T08:59:44;18.90;99.90
563;DHT22;266;49.514;8.294;2022-09-28T09:02:22;19.30;99.90
563;DHT22;266;49.514;8.294;2022-09-28T09:04:56;19.60;99.90
563;DHT22;266;49.514;8.294;2022-09-28T09:07:51;19.40;99.90
563;DHT22;266;49.514;8.294;2022-09-28T09:10:52;19.30;99.90
563;DHT22;266;49.514;8.294;2022-09-28T09:13:49;19.70;99.90
563;DHT22;266;49.514;8.294;2022-09-28T09:16:37;19.80;99.90
563;DHT22;266;49.514;8.294;2022-09-28T09:19:14;19.00;99.90
563;DHT22;266;49.514;8.294;2022-09-28T09:21:46;18.10;99.90
563;DHT22;266;49.514;8.294;2022-09-28T09:24:24;17.60;99.90
563;DHT22;266;49.514;8.294;2022-09-28T09:27:13;17.00;99.90
563;DHT22;266;49.514;8.294;2022-09-28T09:29:53;16.60;99.90
563;DHT22;266;49.514;8.294;2022-09-28T09:32:42;16.30;99.90
563;DHT22;266;49.514;8.294;2022-09-28T09:35:25;16.40;99.90
563;DHT22;266;49.514;8.294;2022-09-28T09:38:13;16.30;99.90
563;DHT22;266;49.514;8.294;2022-09-28T09:40:58;16.00;99.90
563;DHT22;266;49.514;8.294;2022-09-28T09:43:41;15.80;99.90
563;DHT22;266;49.514;8.294;2022-09-28T09:46:16;15.50;99.90
563;DHT22;266;49.514;8.294;2022-09-28T09:48:49;15.20;99.90
563;DHT22;266;49.514;8.294;2022-09-28T09:51:24;15.10;99.90
563;DHT22;266;49.514;8.294;2022-09-28T09:54:02;15.30;99.90
563;DHT22;266;49.514;8.294;2022-09-28T09:56:44;15.80;99.90
563;DHT22;266;49.514;8.294;2022-09-28T09:59:18;16.50;99.90
563;DHT22;266;49.514;8.294;2022-09-28T10:01:49;16.90;99.90
563;DHT22;266;49.514;8.294;2022-09-28T10:04:25;17.00;99.90
563;DHT22;266;49.514;8.294;2022-09-28T10:06:57;17.00;99.90
563;DHT22;266;49.514;8.294;2022-09-28T10:09:31;16.90;99.90
563;DHT22;266;49.514;8.294;2022-09-28T10:12:08;17.00;99.90
563;DHT22;266;49.514;8.294;2022-09-28T10:14:38;16.90;99.90
563;DHT22;266;49.514;8.294;2022-09-28T10:17:11;16.90;99.90
563;DHT22;266;49.514;8.294;2022-09-28T10:19:47;16.90;99.90
563;DHT22;266;49.514;8.294;2022-09-28T10:22:22;17.00;99.90
563;DHT22;266;49.514;8.294;2022-09-28T10:24:55;17.10;99.90
563;DHT22;266;49.514;8.294;2022-09-28T10:27:29;17.10;99.90
563;DHT22;266;49.514;8.294;2022-09-28T10:30:01;17.10;99.90
563;DHT22;266;49.514;8.294;2022-09-28T10:32:37;17.10;99.90
563;DHT22;266;49.514;8.294;2022-09-28T10:35:20;17.10;99.90
563;DHT22;266;49.514;8.294;2022-09-28T10:37:52;17.20;99.90
563;DHT22;266;49.514;8.294;2022-09-28T10:43:24;16.60;99.90
563;DHT22;266;49.514;8.294;2022-09-28T10:46:02;16.10;99.90
563;DHT22;266;49.514;8.294;2022-09-28T10:48:46;15.80;99.90
563;DHT22;266;49.514;8.294;2022-09-28T10:51:19;15.70;99.90
563;DHT22;266;49.514;8.294;2022-09-28T10:54:01;15.50;99.90
563;DHT22;266;49.514;8.294;2022-09-28T10:56:36;15.40;99.90
563;DHT22;266;49.514;8.294;2022-09-28T10:59:32;15.20;99.90
563;DHT22;266;49.514;8.294;2022-09-28T11:02:26;14.90;99.90
563;DHT22;266;49.514;8.294;2022-09-28T11:05:05;14.80;99.90
563;DHT22;266;49.514;8.294;2022-09-28T11:07:46;14.60;99.90
563;DHT22;266;49.514;8.294;2022-09-28T11:10:20;14.40;99.90
563;DHT22;266;49.514;8.294;2022-09-28T11:12:49;14.50;99.90
563;DHT22;266;49.514;8.294;2022-09-28T11:15:24;14.60;99.90
563;DHT22;266;49.514;8.294;2022-09-28T11:17:55;14.70;99.90
563;DHT22;266;49.514;8.294;2022-09-28T11:20:33;14.70;99.90
563;DHT22;266;49.514;8.294;2022-09-28T11:23:21;14.90;99.90
563;DHT22;266;49.514;8.294;2022-09-28T11:26:00;15.40;99.90
563;DHT22;266;49.514;8.294;2022-09-28T11:28:31;15.80;99.90
563;DHT22;266;49.514;8.294;2022-09-28T11:31:03;16.00;99.90
563;DHT22;266;49.514;8.294;2022-09-28T11:33:35;16.40;99.90
563;DHT22;266;49.514;8.294;2022-09-28T11:36:19;16.60;99.90
563;DHT22;266;49.514;8.294;2022-09-28T11:39:01;16.70;99.90
563;DHT22;266;49.514;8.294;2022-09-28T11:41:56;16.70;99.90
563;DHT22;266;49.514;8.294;2022-09-28T11:44:36;16.50;99.90
563;DHT22;266;49.514;8.294;2022-09-28T11:47:27;16.70;99.90
563;DHT22;266;49.514;8.294;2022-09-28T11:50:05;16.90;99.90
563;DHT22;266;49.514;8.294;2022-09-28T11:52:38;17.10;99.90
563;DHT22;266;49.514;8.294;2022-09-28T11:55:13;17.20;99.90
563;DHT22;266;49.514;8.294;2022-09-28T11:57:49;17.40;99.90
563;DHT22;266;49.514;8.294;2022-09-28T12:00:22;17.30;99.90
563;DHT22;266;49.514;8.294;2022-09-28T12:02:56;17.20;99.90
563;DHT22;266;49.514;8.294;2022-09-28T12:05:32;17.00;99.90
563;DHT22;266;49.514;8.294;2022-09-28T12:08:07;16.80;99.90
563;DHT22;266;49.514;8.294;2022-09-28T12:10:44;16.60;99.90
563;DHT22;266;49.514;8.294;2022-09-28T12:13:18;16.60;99.90
563;DHT22;266;49.514;8.294;2022-09-28T12:15:51;16.40;99.90
563;DHT22;266;49.514;8.294;2022-09-28T12:18:49;16.20;99.90
563;DHT22;266;49.514;8.294;2022-09-28T12:21:36;16.10;99.90
563;DHT22;266;49.514;8.294;2022-09-28T12:24:11;16.10;99.90
563;DHT22;266;49.514;8.294;2022-09-28T12:26:48;15.90;99.90
563;DHT22;266;49.514;8.294;2022-09-28T12:29:23;15.80;99.90
563;DHT22;266;49.514;8.294;2022-09-28T12:32:04;15.70;99.90
563;DHT22;266;49.514;8.294;2022-09-28T12:34:41;15.50;99.90
563;DHT22;266;49.514;8.294;2022-09-28T12:40:35;15.40;99.90
563;DHT22;266;49.514;8.294;2022-09-28T12:43:31;15.60;99.90
563;DHT22;266;49.514;8.294;2022-09-28T12:46:30;16.00;99.90
563;DHT22;266;49.514;8.294;2022-09-28T12:49:12;16.40;99.90
563;DHT22;266;49.514;8.294;2022-09-28T12:52:24;16.50;99.90
563;DHT22;266;49.514;8.294;2022-09-28T12:55:07;16.40;99.90
563;DHT22;266;49.514;8.294;2022-09-28T12:57:48;16.40;99.90
563;DHT22;266;49.514;8.294;2022-09-28T13:00:21;16.30;99.90
563;DHT22;266;49.514;8.294;2022-09-28T13:03:02;16.30;99.90
563;DHT22;266;49.514;8.294;2022-09-28T13:05:59;16.40;99.90
563;DHT22;266;49.514;8.294;2022-09-28T13:08:47;16.50;99.90
563;DHT22;266;49.514;8.294;2022-09-28T13:11:30;16.70;99.90
563;DHT22;266;49.514;8.294;2022-09-28T13:14:13;16.70;99.90
563;DHT22;266;49.514;8.294;2022-09-28T13:16:52;16.80;99.90
563;DHT22;266;49.514;8.294;2022-09-28T13:19:34;16.70;99.90
563;DHT22;266;49.514;8.294;2022-09-28T13:22:20;16.50;99.90
563;DHT22;266;49.514;8.294;2022-09-28T13:24:55;16.40;99.90
563;DHT22;266;49.514;8.294;2022-09-28T13:27:30;16.40;99.90
563;DHT22;266;49.514;8.294;2022-09-28T13:30:03;16.50;99.90
563;DHT22;266;49.514;8.294;2022-09-28T13:32:36;16.70;99.90
563;DHT22;266;49.514;8.294;2022-09-28T13:35:10;16.80;99.90
563;DHT22;266;49.514;8.294;2022-09-28T13:37:42;17.00;99.90
563;DHT22;266;49.514;8.294;2022-09-28T13:40:14;17.10;99.90
563;DHT22;266;49.514;8.294;2022-09-28T13:42:58;17.00;99.90
563;DHT22;266;49.514;8.294;2022-09-28T13:45:51;16.90;99.90
563;DHT22;266;49.514;8.294;2022-09-28T13:48:27;16.80;99.90
563;DHT22;266;49.514;8.294;2022-09-28T13:51:20;16.90;99.90
563;DHT22;266;49.514;8.294;2022-09-28T13:54:24;16.70;99.90
563;DHT22;266;49.514;8.294;2022-09-28T13:57:02;16.70;99.90
563;DHT22;266;49.514;8.294;2022-09-28T13:59:51;16.80;99.90
563;DHT22;266;49.514;8.294;2022-09-28T14:02:29;16.60;99.90
563;DHT22;266;49.514;8.294;2022-09-28T14:05:02;16.60;99.90
563;DHT22;266;49.514;8.294;2022-09-28T14:08:08;16.40;99.90
563;DHT22;266;49.514;8.294;2022-09-28T14:10:46;16.30;99.90
563;DHT22;266;49.514;8.294;2022-09-28T14:16:36;16.00;99.90
563;DHT22;266;49.514;8.294;2022-09-28T14:19:07;16.00;99.90
563;DHT22;266;49.514;8.294;2022-09-28T14:21:58;16.10;99.90
563;DHT22;266;49.514;8.294;2022-09-28T14:24:49;16.10;99.90
563;DHT22;266;49.514;8.294;2022-09-28T14:27:39;16.10;99.90
563;DHT22;266;49.514;8.294;2022-09-28T14:30:20;16.20;99.90
563;DHT22;266;49.514;8.294;2022-09-28T14:32:54;16.20;99.90
563;DHT22;266;49.514;8.294;2022-09-28T14:35:27;16.20;99.90
563;DHT22;266;49.514;8.294;2022-09-28T14:38:04;16.20;99.90
563;DHT22;266;49.514;8.294;2022-09-28T14:40:59;16.40;99.90
563;DHT22;266;49.514;8.294;2022-09-28T14:44:11;16.50;99.90
563;DHT22;266;49.514;8.294;2022-09-28T14:46:42;16.50;99.90
563;DHT22;266;49.514;8.294;2022-09-28T14:52:39;16.20;99.90
563;DHT22;266;49.514;8.294;2022-09-28T14:55:14;16.10;99.90
563;DHT22;266;49.514;8.294;2022-09-28T14:57:51;16.00;99.90
563;DHT22;266;49.514;8.294;2022-09-28T15:00:22;16.00;99.90
563;DHT22;266;49.514;8.294;2022-09-28T15:02:54;16.00;99.90
563;DHT22;266;49.514;8.294;2022-09-28T15:05:27;16.00;99.90
563;DHT22;266;49.514;8.294;2022-09-28T15:08:09;15.90;99.90
563;DHT22;266;49.514;8.294;2022-09-28T15:10:43;15.80;99.90
563;DHT22;266;49.514;8.294;2022-09-28T15:13:20;15.80;99.90
563;DHT22;266;49.514;8.294;2022-09-28T15:15:50;15.70;99.90
563;DHT22;266;49.514;8.294;2022-09-28T15:19:00;15.70;99.90
563;DHT22;266;49.514;8.294;2022-09-28T15:21:38;15.80;99.90
563;DHT22;266;49.514;8.294;2022-09-28T15:24:27;15.70;99.90
563;DHT22;266;49.514;8.294;2022-09-28T15:27:00;15.60;99.90
563;DHT22;266;49.514;8.294;2022-09-28T15:29:29;15.50;99.90
563;DHT22;266;49.514;8.294;2022-09-28T15:32:00;15.50;99.90
563;DHT22;266;49.514;8.294;2022-09-28T15:34:30;15.40;99.90
563;DHT22;266;49.514;8.294;2022-09-28T15:37:19;15.40;99.90
563;DHT22;266;49.514;8.294;2022-09-28T15:39:50;15.40;99.90
563;DHT22;266;49.514;8.294;2022-09-28T15:42:20;15.40;99.90
563;DHT22;266;49.514;8.294;2022-09-28T15:45:26;15.40;99.90
563;DHT22;266;49.514;8.294;2022-09-28T15:48:16;15.30;99.90
563;DHT22;266;49.514;8.294;2022-09-28T15:50:57;15.20;99.90
563;DHT22;266;49.514;8.294;2022-09-28T15:53:28;15.20;99.90
563;DHT22;266;49.514;8.294;2022-09-28T15:56:08;15.20;99.90
563;DHT22;266;49.514;8.294;2022-09-28T15:58:42;15.10;99.90
563;DHT22;266;49.514;8.294;2022-09-28T16:01:45;15.00;99.90
563;DHT22;266;49.514;8.294;2022-09-28T16:04:37;15.00;99.90
563;DHT22;266;49.514;8.294;2022-09-28T16:07:32;14.90;99.90
563;DHT22;266;49.514;8.294;2022-09-28T16:12:55;14.80;99.90
563;DHT22;266;49.514;8.294;2022-09-28T16:15:26;14.70;99.90
563;DHT22;266;49.514;8.294;2022-09-28T16:17:59;14.70;99.90
563;DHT22;266;49.514;8.294;2022-09-28T16:20:33;14.70;99.90
563;DHT22;266;49.514;8.294;2022-09-28T16:23:12;14.60;99.90
563;DHT22;266;49.514;8.294;2022-09-28T16:25:51;14.60;99.90
563;DHT22;266;49.514;8.294;2022-09-28T16:28:47;14.50;99.90
563;DHT22;266;49.514;8.294;2022-09-28T16:31:30;14.50;99.90
563;DHT22;266;49.514;8.294;2022-09-28T16:34:09;14.40;99.90
563;DHT22;266;49.514;8.294;2022-09-28T16:36:40;14.40;99.90
563;DHT22;266;49.514;8.294;2022-09-28T16:39:15;14.30;99.90
563;DHT22;266;49.514;8.294;2022-09-28T16:41:47;14.30;99.90
563;DHT22;266;49.514;8.294;2022-09-28T16:44:27;14.30;99.90
563;DHT22;266;49.514;8.294;2022-09-28T16:46:57;14.20;99.90
563;DHT22;266;49.514;8.294;2022-09-28T16:49:26;14.20;99.90
563;DHT22;266;49.514;8.294;2022-09-28T16:51:59;14.10;99.90
563;DHT22;266;49.514;8.294;2022-09-28T16:54:29;14.10;99.90
563;DHT22;266;49.514;8.294;2022-09-28T16:57:14;14.00;99.90
563;DHT22;266;49.514;8.294;2022-09-28T16:59:45;14.00;99.90
563;DHT22;266;49.514;8.294;2022-09-28T17:02:16;14.00;99.90
563;DHT22;266;49.514;8.294;2022-09-28T17:05:05;13.90;99.90
563;DHT22;266;49.514;8.294;2022-09-28T17:07:37;13.80;99.90
563;DHT22;266;49.514;8.294;2022-09-28T17:10:15;13.60;99.90
563;DHT22;266;49.514;8.294;2022-09-28T17:12:44;13.50;99.90
563;DHT22;266;49.514;8.294;2022-09-28T17:15:16;13.40;99.90
563;DHT22;266;49.514;8.294;2022-09-28T17:17:46;13.20;99.90
563;DHT22;266;49.514;8.294;2022-09-28T17:20:19;13.10;99.90
563;DHT22;266;49.514;8.294;2022-09-28T17:22:50;12.80;99.90
563;DHT22;266;49.514;8.294;2022-09-28T17:25:22;12.70;99.90
563;DHT22;266;49.514;8.294;2022-09-28T17:27:53;12.70;99.90
563;DHT22;266;49.514;8.294;2022-09-28T17:30:26;12.50;99.90
563;DHT22;266;49.514;8.294;2022-09-28T17:32:55;12.40;99.90
563;DHT22;266;49.514;8.294;2022-09-28T17:35:26;12.30;99.90
563;DHT22;266;49.514;8.294;2022-09-28T17:38:01;12.20;99.90
563;DHT22;266;49.514;8.294;2022-09-28T17:40:29;12.10;99.90
563;DHT22;266;49.514;8.294;2022-09-28T17:42:59;12.00;99.90
563;DHT22;266;49.514;8.294;2022-09-28T17:45:32;11.90;99.90
563;DHT22;266;49.514;8.294;2022-09-28T17:48:11;11.90;99.90